createdAt,value
2022-07-29T00:00:58.750Z,41.12
2022-07-29T00:03:25.355Z,40.87
2022-07-29T00:05:54.041Z,40.92
2022-07-29T00:08:21.268Z,40.91
2022-07-29T00:10:48.067Z,40.95
2022-07-29T00:13:14.663Z,41.23
2022-07-29T00:15:41.368Z,41.04
2022-07-29T00:18:08.477Z,41.25
2022-07-29T00:20:35.023Z,41.35
2022-07-29T00:23:01.763Z,41.16
2022-07-29T00:25:28.323Z,41.09
2022-07-29T00:27:54.841Z,40.87
2022-07-29T00:30:21.526Z,40.80
2022-07-29T00:32:48.083Z,40.50
2022-07-29T00:35:33.269Z,40.61
2022-07-29T00:38:00.256Z,40.80
2022-07-29T00:40:28.860Z,40.78
2022-07-29T00:42:55.563Z,40.60
2022-07-29T00:45:23.195Z,40.47
2022-07-29T00:47:51.220Z,40.55
2022-07-29T00:50:18.781Z,40.69
2022-07-29T00:52:45.563Z,40.94
2022-07-29T00:55:15.190Z,40.84
2022-07-29T00:57:43.415Z,40.51
2022-07-29T01:00:13.336Z,40.71
2022-07-29T01:02:39.899Z,40.38
2022-07-29T01:05:07.728Z,40.44
2022-07-29T01:07:37.806Z,40.36
2022-07-29T01:10:06.313Z,40.07
2022-07-29T01:12:35.172Z,40.21
2022-07-29T01:15:04.166Z,39.87
2022-07-29T01:17:56.805Z,39.52
2022-07-29T01:21:21.338Z,39.14
2022-07-29T01:24:06.650Z,38.68
2022-07-29T01:26:43.931Z,38.56
2022-07-29T01:29:40.539Z,38.51
2022-07-29T01:32:28.496Z,38.54
2022-07-29T01:35:13.383Z,38.42
2022-07-29T01:37:58.284Z,38.52
2022-07-29T01:40:52.289Z,38.61
2022-07-29T01:43:22.075Z,38.57
2022-07-29T01:46:15.808Z,38.75
2022-07-29T01:48:48.411Z,39.00
2022-07-29T01:51:21.318Z,39.03
2022-07-29T01:54:14.127Z,39.24
2022-07-29T01:56:43.421Z,39.32
2022-07-29T01:59:11.499Z,39.25
2022-07-29T02:01:41.083Z,39.78
2022-07-29T02:04:11.355Z,39.80
2022-07-29T02:06:55.649Z,40.42
2022-07-29T02:09:24.351Z,41.20
2022-07-29T02:11:54.573Z,41.45
2022-07-29T02:14:23.569Z,41.96
2022-07-29T02:16:54.689Z,42.65
2022-07-29T02:19:24.624Z,42.97
2022-07-29T02:21:54.709Z,43.39
2022-07-29T02:24:23.483Z,43.68
2022-07-29T02:26:52.201Z,43.92
2022-07-29T02:29:23.925Z,44.10
2022-07-29T02:31:52.557Z,44.56
2022-07-29T02:34:21.758Z,44.82
2022-07-29T02:36:50.451Z,45.32
2022-07-29T02:39:18.325Z,45.54
2022-07-29T02:41:48.585Z,45.61
2022-07-29T02:44:18.793Z,45.89
2022-07-29T02:47:03.700Z,46.15
2022-07-29T02:49:43.753Z,46.19
2022-07-29T02:52:19.867Z,46.09
2022-07-29T02:54:57.772Z,46.59
2022-07-29T02:57:53.917Z,46.77
2022-07-29T03:00:24.658Z,46.96
2022-07-29T03:02:54.977Z,47.56
2022-07-29T03:05:23.208Z,47.95
2022-07-29T03:07:55.714Z,49.21
2022-07-29T03:10:22.786Z,49.34
2022-07-29T03:12:49.788Z,50.07
2022-07-29T03:15:17.339Z,50.43
2022-07-29T03:17:44.682Z,50.89
2022-07-29T03:20:12.726Z,51.36
2022-07-29T03:22:44.516Z,51.71
2022-07-29T03:25:12.641Z,52.47
2022-07-29T03:27:39.391Z,52.76
2022-07-29T03:30:08.258Z,52.96
2022-07-29T03:32:35.749Z,53.50
2022-07-29T03:35:02.415Z,53.49
2022-07-29T03:37:29.687Z,54.30
2022-07-29T03:39:58.078Z,55.19
2022-07-29T03:42:32.402Z,55.75
2022-07-29T03:45:04.473Z,56.32
2022-07-29T03:47:47.952Z,57.06
2022-07-29T03:50:20.362Z,57.63
2022-07-29T03:52:47.682Z,58.52
2022-07-29T03:55:15.718Z,58.66
2022-07-29T03:57:43.669Z,58.49
2022-07-29T04:00:10.650Z,58.25
2022-07-29T04:02:39.170Z,57.97
2022-07-29T04:05:06.317Z,57.79
2022-07-29T04:07:32.978Z,57.90
2022-07-29T04:09:59.487Z,57.81
2022-07-29T04:12:26.202Z,57.30
2022-07-29T04:14:52.881Z,57.45
2022-07-29T04:17:19.547Z,57.11
2022-07-29T04:19:46.305Z,57.00
2022-07-29T04:22:12.956Z,57.11
2022-07-29T04:24:42.856Z,56.75
2022-07-29T04:27:11.066Z,56.74
2022-07-29T04:29:37.706Z,56.99
2022-07-29T04:32:23.988Z,56.10
2022-07-29T04:34:50.614Z,56.30
2022-07-29T04:37:17.236Z,56.73
2022-07-29T04:39:43.894Z,56.43
2022-07-29T04:42:10.575Z,56.23
2022-07-29T04:44:39.740Z,55.90
2022-07-29T04:47:10.210Z,55.34
2022-07-29T04:49:39.492Z,55.47
2022-07-29T04:52:07.378Z,55.60
2022-07-29T04:54:34.496Z,55.49
2022-07-29T04:57:01.114Z,55.61
2022-07-29T04:59:28.074Z,55.11
2022-07-29T05:01:54.734Z,54.94
2022-07-29T05:04:21.533Z,54.81
2022-07-29T05:06:48.387Z,54.51
2022-07-29T05:09:15.115Z,53.59
2022-07-29T05:11:41.699Z,53.76
2022-07-29T05:14:08.292Z,54.07
2022-07-29T05:16:34.888Z,53.98
2022-07-29T05:19:01.605Z,54.43
2022-07-29T05:21:28.255Z,54.12
2022-07-29T05:23:55.127Z,54.28
2022-07-29T05:26:21.723Z,54.12
2022-07-29T05:28:48.340Z,54.49
2022-07-29T05:31:15.733Z,54.50
2022-07-29T05:33:42.995Z,54.40
2022-07-29T05:36:09.663Z,54.41
2022-07-29T05:38:37.104Z,54.46
2022-07-29T05:41:04.594Z,53.82
2022-07-29T05:43:31.738Z,54.41
2022-07-29T05:45:58.735Z,54.45
2022-07-29T05:48:25.714Z,55.15
2022-07-29T05:50:52.434Z,55.37
2022-07-29T05:53:20.506Z,55.53
2022-07-29T05:55:48.712Z,55.46
2022-07-29T05:58:15.406Z,56.15
2022-07-29T06:00:42.272Z,55.68
2022-07-29T06:03:08.886Z,55.26
2022-07-29T06:05:35.466Z,55.05
2022-07-29T06:08:02.065Z,55.18
2022-07-29T06:10:28.630Z,55.67
2022-07-29T06:12:55.757Z,55.13
2022-07-29T06:15:22.381Z,53.91
2022-07-29T06:17:59.082Z,53.11
2022-07-29T06:20:30.830Z,52.47
2022-07-29T06:22:57.881Z,51.98
2022-07-29T06:25:24.433Z,50.17
2022-07-29T06:27:52.456Z,49.41
2022-07-29T06:30:19.265Z,49.52
2022-07-29T06:32:45.811Z,48.29
2022-07-29T06:35:38.643Z,47.46
2022-07-29T06:37:59.795Z,45.68
2022-07-29T06:40:45.494Z,44.17
2022-07-29T06:43:12.200Z,42.02
2022-07-29T06:45:42.301Z,42.55
2022-07-29T06:48:09.779Z,41.97
2022-07-29T06:50:36.507Z,42.87
2022-07-29T06:53:03.440Z,42.29
2022-07-29T06:55:30.044Z,43.01
2022-07-29T06:57:56.570Z,42.59
2022-07-29T07:00:23.214Z,41.08
2022-07-29T07:02:49.912Z,40.17
2022-07-29T07:05:16.612Z,40.21
2022-07-29T07:07:43.229Z,40.44
2022-07-29T07:10:09.926Z,39.21
2022-07-29T07:12:36.513Z,38.34
2022-07-29T07:15:04.091Z,38.07
2022-07-29T07:17:30.606Z,38.61
2022-07-29T07:19:57.146Z,38.15
2022-07-29T07:22:23.741Z,38.16
2022-07-29T07:24:50.311Z,38.08
2022-07-29T07:27:16.845Z,38.01
2022-07-29T07:29:44.288Z,37.75
2022-07-29T07:32:11.303Z,37.81
2022-07-29T07:34:39.056Z,37.96
2022-07-29T07:37:06.258Z,39.34
2022-07-29T07:39:32.892Z,40.58
2022-07-29T07:41:59.653Z,40.47
2022-07-29T07:44:26.263Z,40.22
2022-07-29T07:46:53.441Z,40.14
2022-07-29T07:49:21.621Z,39.74
2022-07-29T07:51:50.518Z,38.18
2022-07-29T07:54:18.523Z,38.04
2022-07-29T07:56:50.783Z,38.31
2022-07-29T07:59:19.915Z,37.45
2022-07-29T08:01:55.300Z,37.00
2022-07-29T08:04:27.591Z,37.86
2022-07-29T08:06:55.369Z,36.44
2022-07-29T08:09:29.393Z,35.79
2022-07-29T08:11:57.585Z,35.12
2022-07-29T08:14:24.220Z,33.89
2022-07-29T08:16:50.999Z,33.89
2022-07-29T08:19:17.795Z,32.85
2022-07-29T08:21:44.297Z,31.13
2022-07-29T08:24:29.295Z,31.59
2022-07-29T08:26:55.921Z,30.64
2022-07-29T08:29:22.592Z,30.42
2022-07-29T08:31:49.254Z,30.13
2022-07-29T08:34:15.868Z,30.02
2022-07-29T08:36:42.503Z,30.84
2022-07-29T08:39:09.557Z,32.61
2022-07-29T08:41:36.632Z,32.89
2022-07-29T08:44:03.849Z,32.65
2022-07-29T08:46:30.533Z,32.63
2022-07-29T08:48:57.196Z,32.10
2022-07-29T08:51:26.434Z,33.22
2022-07-29T08:53:54.082Z,32.54
2022-07-29T08:56:21.458Z,32.65
2022-07-29T08:58:52.101Z,32.20
2022-07-29T09:01:35.222Z,32.63
2022-07-29T09:04:05.809Z,32.63
2022-07-29T09:06:35.657Z,33.62
2022-07-29T09:09:02.870Z,33.39
2022-07-29T09:11:29.651Z,33.31
2022-07-29T09:13:56.345Z,33.68
2022-07-29T09:16:50.955Z,33.40
2022-07-29T09:19:23.610Z,34.11
2022-07-29T09:21:59.790Z,34.53
2022-07-29T09:24:48.484Z,35.75
2022-07-29T09:27:29.946Z,36.68
2022-07-29T09:30:01.172Z,37.35
2022-07-29T09:32:28.914Z,37.92
2022-07-29T09:35:18.764Z,36.95
2022-07-29T09:37:45.805Z,37.09
2022-07-29T09:40:17.325Z,36.82
2022-07-29T09:42:46.268Z,37.05
2022-07-29T09:45:26.711Z,37.14
2022-07-29T09:47:53.417Z,37.21
2022-07-29T09:50:24.882Z,36.88
2022-07-29T09:52:53.048Z,36.40
2022-07-29T09:55:20.238Z,41.12
2022-07-29T09:57:48.065Z,41.63
2022-07-29T10:00:20.861Z,40.46
2022-07-29T10:02:48.741Z,40.30
2022-07-29T10:05:25.493Z,39.92
2022-07-29T10:07:57.955Z,40.14
2022-07-29T10:10:36.662Z,39.08
2022-07-29T10:13:09.936Z,38.12
2022-07-29T10:15:41.841Z,38.24
2022-07-29T10:18:10.436Z,38.50
2022-07-29T10:20:38.225Z,37.97
2022-07-29T10:23:05.391Z,37.61
2022-07-29T10:25:32.637Z,36.71
2022-07-29T10:27:59.426Z,36.13
2022-07-29T10:30:27.150Z,36.56
2022-07-29T10:33:17.357Z,36.90
2022-07-29T10:35:56.001Z,35.85
2022-07-29T10:38:47.072Z,35.42
2022-07-29T10:41:32.305Z,35.87
2022-07-29T10:44:23.168Z,36.30
2022-07-29T10:46:50.602Z,35.98
2022-07-29T10:49:24.387Z,35.89
2022-07-29T10:51:55.805Z,36.07
2022-07-29T10:54:42.447Z,35.93
2022-07-29T10:57:18.099Z,35.96
2022-07-29T10:59:46.513Z,36.63
2022-07-29T11:02:41.669Z,38.50
2022-07-29T11:05:14.950Z,38.17
2022-07-29T11:08:19.441Z,38.25
2022-07-29T11:10:46.933Z,36.96
2022-07-29T11:13:44.716Z,36.53
2022-07-29T11:16:16.037Z,36.86
2022-07-29T11:19:14.235Z,36.79
2022-07-29T11:21:55.003Z,35.71
2022-07-29T11:24:32.187Z,34.98
2022-07-29T11:27:20.913Z,34.41
2022-07-29T11:30:02.147Z,34.89
2022-07-29T11:32:39.858Z,35.32
2022-07-29T11:35:37.481Z,34.77
2022-07-29T11:38:29.348Z,34.43
2022-07-29T11:41:20.923Z,33.57
2022-07-29T11:43:54.888Z,34.55
2022-07-29T11:46:47.538Z,34.33
2022-07-29T11:49:19.550Z,35.08
2022-07-29T11:51:56.583Z,34.45
2022-07-29T11:54:27.857Z,33.61
2022-07-29T11:56:54.884Z,33.60
2022-07-29T11:59:22.837Z,33.62
2022-07-29T12:02:18.481Z,33.15
2022-07-29T12:04:55.490Z,32.83
2022-07-29T12:07:35.752Z,32.90
2022-07-29T12:10:04.032Z,32.67
2022-07-29T12:12:33.603Z,32.58
2022-07-29T12:15:20.337Z,32.66
2022-07-29T12:17:49.111Z,32.93
2022-07-29T12:20:27.367Z,34.02
2022-07-29T12:22:55.507Z,34.00
2022-07-29T12:25:33.836Z,34.46
2022-07-29T12:28:02.345Z,33.69
2022-07-29T12:30:41.595Z,33.35
2022-07-29T12:33:28.520Z,33.53
2022-07-29T12:36:06.040Z,33.36
2022-07-29T12:38:37.053Z,32.91
2022-07-29T12:41:04.727Z,32.91
2022-07-29T12:43:32.264Z,32.80
2022-07-29T12:46:12.110Z,32.48
2022-07-29T12:48:42.465Z,32.04
2022-07-29T12:51:11.066Z,32.44
2022-07-29T12:53:38.976Z,32.35
2022-07-29T12:56:20.524Z,32.26
2022-07-29T12:58:53.481Z,32.83
2022-07-29T13:01:21.056Z,32.04
2022-07-29T13:03:57.433Z,31.81
2022-07-29T13:06:30.553Z,32.07
2022-07-29T13:09:11.685Z,31.94
2022-07-29T13:11:47.924Z,31.76
2022-07-29T13:14:43.655Z,31.80
2022-07-29T13:17:13.848Z,32.09
2022-07-29T13:19:47.191Z,32.35
2022-07-29T13:22:16.917Z,32.25
2022-07-29T13:24:55.068Z,32.40
2022-07-29T13:27:24.761Z,32.26
2022-07-29T13:29:53.382Z,32.09
2022-07-29T13:32:27.897Z,32.14
2022-07-29T13:34:57.385Z,31.91
2022-07-29T13:37:24.488Z,31.58
2022-07-29T13:39:52.896Z,31.79
2022-07-29T13:42:20.317Z,31.63
2022-07-29T13:44:46.920Z,31.25
2022-07-29T13:47:13.967Z,31.98
2022-07-29T13:49:40.605Z,31.25
2022-07-29T13:52:08.425Z,30.97
2022-07-29T13:54:41.956Z,30.49
2022-07-29T13:57:09.710Z,29.96
2022-07-29T13:59:36.384Z,30.32
2022-07-29T14:02:03.532Z,31.01
2022-07-29T14:04:30.229Z,31.61
2022-07-29T14:06:56.833Z,31.40
2022-07-29T14:09:23.870Z,31.91
2022-07-29T14:11:52.293Z,32.21
2022-07-29T14:14:18.863Z,32.27
2022-07-29T14:16:46.559Z,31.77
2022-07-29T14:19:17.122Z,32.51
2022-07-29T14:21:43.679Z,32.66
2022-07-29T14:24:17.658Z,32.71
2022-07-29T14:26:46.548Z,33.02
2022-07-29T14:29:13.349Z,34.07
2022-07-29T14:31:39.925Z,36.38
2022-07-29T14:34:06.530Z,38.43
2022-07-29T14:36:33.150Z,39.98
2022-07-29T14:38:59.739Z,40.73
2022-07-29T14:41:29.140Z,41.41
2022-07-29T14:43:55.769Z,42.15
2022-07-29T14:46:22.541Z,42.92
2022-07-29T14:48:49.432Z,42.91
2022-07-29T14:51:16.211Z,42.02
2022-07-29T14:53:42.818Z,40.65
2022-07-29T14:56:34.186Z,39.45
2022-07-29T14:58:56.514Z,39.68
2022-07-29T15:01:23.129Z,39.96
2022-07-29T15:03:49.884Z,41.45
2022-07-29T15:06:16.486Z,41.66
2022-07-29T15:08:43.140Z,42.01
2022-07-29T15:11:09.786Z,42.04
2022-07-29T15:13:36.420Z,40.38
2022-07-29T15:16:03.247Z,40.31
2022-07-29T15:18:29.797Z,39.54
2022-07-29T15:20:56.460Z,39.66
2022-07-29T15:23:23.094Z,38.82
2022-07-29T15:25:49.601Z,38.40
2022-07-29T15:28:16.280Z,38.75
2022-07-29T15:30:42.966Z,37.50
2022-07-29T15:33:10.465Z,38.13
2022-07-29T15:35:40.848Z,37.47
2022-07-29T15:38:07.691Z,37.79
2022-07-29T15:40:34.341Z,37.48
2022-07-29T15:43:06.785Z,35.58
2022-07-29T15:46:03.366Z,35.51
2022-07-29T15:48:30.319Z,35.65
2022-07-29T15:50:57.603Z,35.82
2022-07-29T15:53:27.277Z,35.21
2022-07-29T15:55:58.027Z,34.67
2022-07-29T15:58:32.125Z,35.22
2022-07-29T16:01:00.601Z,35.36
2022-07-29T16:03:29.393Z,34.85
2022-07-29T16:05:56.272Z,35.31
2022-07-29T16:08:22.881Z,34.87
2022-07-29T16:10:51.277Z,34.63
2022-07-29T16:13:20.885Z,35.19
2022-07-29T16:16:01.852Z,34.65
2022-07-29T16:18:30.073Z,34.27
2022-07-29T16:20:57.402Z,35.47
2022-07-29T16:23:24.702Z,35.68
2022-07-29T16:25:59.619Z,36.41
2022-07-29T16:28:26.553Z,36.26
2022-07-29T16:30:53.127Z,40.70
2022-07-29T16:33:19.826Z,41.30
2022-07-29T16:35:46.451Z,42.95
2022-07-29T16:38:13.238Z,43.37
2022-07-29T16:40:41.128Z,44.51
2022-07-29T16:43:07.837Z,44.49
2022-07-29T16:45:45.428Z,44.89
2022-07-29T16:48:17.966Z,45.35
2022-07-29T16:50:44.834Z,46.54
2022-07-29T16:53:11.399Z,46.57
2022-07-29T16:55:38.311Z,46.67
2022-07-29T16:58:05.385Z,46.79
2022-07-29T17:00:32.249Z,46.89
2022-07-29T17:03:00.153Z,47.46
2022-07-29T17:05:28.126Z,47.86
2022-07-29T17:07:55.930Z,47.94
2022-07-29T17:10:22.686Z,47.84
2022-07-29T17:12:49.464Z,48.39
2022-07-29T17:15:18.573Z,49.17
2022-07-29T17:17:54.810Z,49.14
2022-07-29T17:20:24.550Z,48.95
2022-07-29T17:22:51.157Z,49.24
2022-07-29T17:25:20.998Z,48.99
2022-07-29T17:27:48.111Z,49.31
2022-07-29T17:30:14.700Z,49.38
2022-07-29T17:32:41.331Z,49.32
2022-07-29T17:35:27.082Z,48.98
2022-07-29T17:37:53.919Z,49.64
2022-07-29T17:40:20.703Z,50.45
2022-07-29T17:42:47.379Z,50.25
2022-07-29T17:45:13.996Z,50.29
2022-07-29T17:47:42.008Z,49.97
2022-07-29T17:50:08.916Z,50.07
2022-07-29T17:52:35.589Z,50.49
2022-07-29T17:55:02.736Z,51.09
2022-07-29T17:57:29.255Z,51.33
2022-07-29T17:59:56.152Z,51.97
2022-07-29T18:02:22.833Z,51.90
2022-07-29T18:04:53.238Z,51.28
2022-07-29T18:07:19.969Z,51.78
2022-07-29T18:09:46.601Z,52.90
2022-07-29T18:12:13.185Z,52.82
2022-07-29T18:14:39.789Z,53.37
2022-07-29T18:17:06.408Z,54.22
2022-07-29T18:19:33.048Z,56.00
2022-07-29T18:22:04.799Z,55.63
2022-07-29T18:24:32.556Z,59.04
2022-07-29T18:26:59.562Z,57.91
2022-07-29T18:29:28.924Z,60.74
2022-07-29T18:31:56.194Z,61.18
2022-07-29T18:34:23.116Z,61.34
2022-07-29T18:36:49.781Z,62.56
2022-07-29T18:39:20.263Z,63.95
2022-07-29T18:41:50.332Z,64.43
2022-07-29T18:44:18.334Z,66.01
2022-07-29T18:46:47.885Z,65.58
2022-07-29T18:49:14.970Z,67.30
2022-07-29T18:51:41.634Z,67.19
2022-07-29T18:54:09.527Z,68.55
2022-07-29T18:56:36.476Z,66.85
2022-07-29T18:59:03.338Z,67.21
2022-07-29T19:01:31.918Z,67.85
2022-07-29T19:03:59.145Z,68.13
2022-07-29T19:06:26.076Z,68.70
2022-07-29T19:08:53.328Z,70.07
2022-07-29T19:11:19.958Z,71.29
2022-07-29T19:13:46.611Z,71.44
2022-07-29T19:16:14.263Z,70.74
2022-07-29T19:18:41.471Z,70.00
2022-07-29T19:21:08.105Z,69.81
2022-07-29T19:24:06.371Z,70.21
2022-07-29T19:26:21.441Z,70.28
2022-07-29T19:28:49.271Z,70.69
2022-07-29T19:31:16.104Z,70.86
2022-07-29T19:33:44.446Z,70.87
2022-07-29T19:36:11.538Z,71.11
2022-07-29T19:38:39.554Z,71.09
2022-07-29T19:41:06.454Z,71.27
2022-07-29T19:43:49.460Z,71.06
2022-07-29T19:46:20.520Z,71.21
2022-07-29T19:48:47.275Z,71.19
2022-07-29T19:51:14.038Z,70.09
2022-07-29T19:53:40.661Z,69.76
2022-07-29T19:56:08.807Z,69.58
2022-07-29T19:58:35.835Z,69.99
2022-07-29T20:01:02.798Z,69.85
2022-07-29T20:03:40.006Z,70.51
2022-07-29T20:06:07.678Z,70.58
2022-07-29T20:08:34.726Z,69.46
2022-07-29T20:11:01.496Z,68.86
2022-07-29T20:13:28.176Z,68.75
2022-07-29T20:15:54.808Z,69.02
2022-07-29T20:18:21.388Z,69.24
2022-07-29T20:20:49.650Z,69.21
2022-07-29T20:23:17.144Z,69.55
2022-07-29T20:25:43.924Z,69.06
2022-07-29T20:28:10.534Z,69.21
2022-07-29T20:30:38.405Z,69.01
2022-07-29T20:33:05.713Z,69.11
2022-07-29T20:35:32.343Z,68.85
2022-07-29T20:38:00.356Z,68.88
2022-07-29T20:40:29.029Z,68.75
2022-07-29T20:42:55.947Z,68.54
2022-07-29T20:45:24.365Z,68.31
2022-07-29T20:47:52.141Z,68.19
2022-07-29T20:50:20.570Z,68.29
2022-07-29T20:52:51.636Z,67.92
2022-07-29T20:55:18.393Z,67.98
2022-07-29T20:57:45.014Z,68.50
2022-07-29T21:00:12.083Z,67.88
2022-07-29T21:02:38.894Z,68.64
2022-07-29T21:05:06.248Z,68.75
2022-07-29T21:07:32.965Z,69.20
2022-07-29T21:09:59.636Z,69.33
2022-07-29T21:12:26.262Z,69.59
2022-07-29T21:14:52.856Z,69.64
2022-07-29T21:17:22.686Z,69.91
2022-07-29T21:19:52.596Z,70.14
2022-07-29T21:22:21.896Z,70.57
2022-07-29T21:24:49.247Z,71.12
2022-07-29T21:27:34.985Z,70.72
2022-07-29T21:30:06.335Z,71.13
2022-07-29T21:32:32.973Z,71.21
2022-07-29T21:34:59.659Z,72.17
2022-07-29T21:37:26.329Z,72.79
2022-07-29T21:39:52.912Z,73.15
2022-07-29T21:42:19.483Z,73.51
2022-07-29T21:44:46.174Z,73.25
2022-07-29T21:47:12.907Z,73.06
2022-07-29T21:49:39.923Z,73.21
2022-07-29T21:52:08.108Z,73.57
2022-07-29T21:54:35.805Z,73.92
2022-07-29T21:57:02.609Z,73.87
2022-07-29T21:59:29.712Z,73.94
2022-07-29T22:01:56.656Z,74.35
2022-07-29T22:04:23.390Z,74.86
2022-07-29T22:06:50.024Z,75.08
2022-07-29T22:09:16.604Z,75.82
2022-07-29T22:11:43.602Z,75.88
2022-07-29T22:14:10.230Z,78.31
2022-07-29T22:16:37.025Z,78.39
2022-07-29T22:19:04.089Z,78.58
2022-07-29T22:21:30.987Z,78.01
2022-07-29T22:23:57.764Z,77.97
2022-07-29T22:26:24.357Z,78.36
2022-07-29T22:28:50.973Z,78.90
2022-07-29T22:31:17.748Z,78.73
2022-07-29T22:33:44.396Z,79.14
2022-07-29T22:36:10.954Z,79.73
2022-07-29T22:38:37.588Z,79.47
2022-07-29T22:41:04.225Z,80.18
2022-07-29T22:43:30.825Z,80.22
2022-07-29T22:45:57.493Z,79.73
2022-07-29T22:48:24.282Z,79.94
2022-07-29T22:50:51.588Z,80.29
2022-07-29T22:53:18.245Z,80.03
2022-07-29T22:55:45.318Z,79.50
2022-07-29T22:58:11.873Z,78.97
2022-07-29T23:00:38.688Z,79.00
2022-07-29T23:03:05.387Z,78.82
2022-07-29T23:05:32.654Z,78.43
2022-07-29T23:07:59.592Z,78.55
2022-07-29T23:10:26.198Z,78.56
2022-07-29T23:12:52.813Z,78.69
2022-07-29T23:15:19.624Z,78.62
2022-07-29T23:17:46.284Z,78.14
2022-07-29T23:20:14.778Z,78.07
2022-07-29T23:22:42.046Z,77.82
2022-07-29T23:25:08.746Z,77.83
2022-07-29T23:27:35.465Z,77.59
2022-07-29T23:30:02.544Z,78.19
2022-07-29T23:32:29.215Z,78.77
2022-07-29T23:34:55.911Z,78.77
2022-07-29T23:37:22.790Z,79.90
2022-07-29T23:39:49.398Z,80.51
2022-07-29T23:42:16.269Z,80.59
2022-07-29T23:44:43.133Z,80.81
2022-07-29T23:47:09.776Z,81.06
2022-07-29T23:49:36.322Z,81.73
2022-07-29T23:52:02.918Z,81.69
2022-07-29T23:54:29.805Z,81.29
2022-07-29T23:56:57.975Z,80.56
2022-07-29T23:59:25.146Z,80.60
